createdAt,value
2023-01-22T00:02:14.636Z,98671.00
2023-01-22T00:06:15.858Z,98667.00
2023-01-22T00:10:17.456Z,98673.00
2023-01-22T00:14:18.594Z,98670.00
2023-01-22T00:18:19.932Z,98650.00
2023-01-22T00:22:21.669Z,98659.00
2023-01-22T00:26:22.742Z,98660.00
2023-01-22T00:30:23.857Z,98660.00
2023-01-22T00:34:24.837Z,98647.00
2023-01-22T00:38:25.994Z,98647.00
2023-01-22T00:42:27.067Z,98636.00
2023-01-22T00:46:28.160Z,98636.00
2023-01-22T00:50:29.223Z,98636.00
2023-01-22T00:54:30.334Z,98650.00
2023-01-22T00:58:31.383Z,98654.00
2023-01-22T01:02:32.533Z,98641.00
2023-01-22T01:06:33.648Z,98634.00
2023-01-22T01:10:34.622Z,98633.00
2023-01-22T01:14:35.707Z,98637.00
2023-01-22T01:22:39.849Z,98650.00
2023-01-22T01:26:41.355Z,98642.00
2023-01-22T01:30:42.899Z,98637.00
2023-01-22T01:34:45.040Z,98645.00
2023-01-22T01:38:47.323Z,98646.00
2023-01-22T01:42:48.392Z,98632.00
2023-01-22T01:46:53.347Z,98632.00
2023-01-22T01:51:01.227Z,98640.00
2023-01-22T01:55:03.371Z,98640.00
2023-01-22T01:59:08.017Z,98633.00
2023-01-22T02:03:09.120Z,98636.00
2023-01-22T02:07:10.172Z,98660.00
2023-01-22T02:11:11.363Z,98620.00
2023-01-22T02:15:13.555Z,98628.00
2023-01-22T02:19:14.622Z,98624.00
2023-01-22T02:23:15.641Z,98613.00
2023-01-22T02:27:16.807Z,98628.00
2023-01-22T02:31:18.124Z,98633.00
2023-01-22T02:35:19.045Z,98615.00
2023-01-22T02:39:20.027Z,98618.00
2023-01-22T02:43:21.112Z,98628.00
2023-01-22T02:47:22.054Z,98631.00
2023-01-22T02:51:23.545Z,98616.00
2023-01-22T02:55:24.966Z,98633.00
2023-01-22T02:59:26.197Z,98628.00
2023-01-22T03:03:27.281Z,98625.00
2023-01-22T03:07:31.663Z,98625.00
2023-01-22T03:11:35.448Z,98623.00
2023-01-22T03:15:57.780Z,98609.00
2023-01-22T03:20:17.462Z,98623.00
2023-01-22T03:24:18.554Z,98617.00
2023-01-22T03:28:19.628Z,98623.00
2023-01-22T03:32:21.738Z,98613.00
2023-01-22T03:36:22.918Z,98625.00
2023-01-22T03:40:23.871Z,98628.00
2023-01-22T03:44:25.455Z,98619.00
2023-01-22T03:48:26.267Z,98618.00
2023-01-22T03:52:27.106Z,98621.00
2023-01-22T03:56:28.188Z,98613.00
2023-01-22T04:00:29.372Z,98619.00
2023-01-22T04:04:30.273Z,98621.00
2023-01-22T04:08:33.162Z,98630.00
2023-01-22T04:12:34.241Z,98643.00
2023-01-22T04:16:35.304Z,98630.00
2023-01-22T04:20:36.514Z,98633.00
2023-01-22T04:24:37.589Z,98640.00
2023-01-22T04:28:38.679Z,98633.00
2023-01-22T04:32:39.734Z,98628.00
2023-01-22T04:36:40.855Z,98628.00
2023-01-22T04:40:42.041Z,98636.00
2023-01-22T04:44:43.186Z,98631.00
2023-01-22T04:48:45.411Z,98631.00
2023-01-22T04:52:46.900Z,98633.00
2023-01-22T04:56:47.976Z,98632.00
2023-01-22T05:00:48.900Z,98631.00
2023-01-22T05:04:49.856Z,98635.00
2023-01-22T05:08:50.923Z,98646.00
2023-01-22T05:12:52.121Z,98633.00
2023-01-22T05:16:53.194Z,98640.00
2023-01-22T05:20:54.298Z,98645.00
2023-01-22T05:24:55.457Z,98633.00
2023-01-22T05:28:56.595Z,98635.00
2023-01-22T05:32:57.545Z,98638.00
2023-01-22T05:36:58.680Z,98650.00
2023-01-22T05:40:59.850Z,98646.00
2023-01-22T05:45:00.933Z,98653.00
2023-01-22T05:49:01.896Z,98657.00
2023-01-22T05:53:03.312Z,98612.00
2023-01-22T05:57:04.625Z,98658.00
2023-01-22T06:01:06.101Z,98648.00
2023-01-22T06:05:07.748Z,98653.00
2023-01-22T06:09:13.550Z,98649.00
2023-01-22T06:13:14.636Z,98653.00
2023-01-22T06:17:15.753Z,98659.00
2023-01-22T06:21:16.700Z,98670.00
2023-01-22T06:25:18.008Z,98661.00
2023-01-22T06:29:19.246Z,98669.00
2023-01-22T06:33:20.386Z,98668.00
2023-01-22T06:37:22.207Z,98662.00
2023-01-22T06:41:23.363Z,98661.00
2023-01-22T06:45:24.445Z,98666.00
2023-01-22T06:49:25.560Z,98664.00
2023-01-22T06:53:27.090Z,98670.00
2023-01-22T06:57:28.287Z,98690.00
2023-01-22T07:01:29.445Z,98682.00
2023-01-22T07:05:30.588Z,98696.00
2023-01-22T07:09:31.557Z,98694.00
2023-01-22T07:13:32.773Z,98698.00
2023-01-22T07:17:34.507Z,98698.00
2023-01-22T07:21:35.456Z,98704.00
2023-01-22T07:25:36.958Z,98716.00
2023-01-22T07:29:37.991Z,98718.00
2023-01-22T07:33:39.282Z,98719.00
2023-01-22T07:37:40.280Z,98731.00
2023-01-22T07:41:41.591Z,98729.00
2023-01-22T07:45:42.911Z,98727.00
2023-01-22T07:49:43.923Z,98740.00
2023-01-22T07:53:45.024Z,98731.00
2023-01-22T07:57:46.256Z,98738.00
2023-01-22T08:01:47.521Z,98748.00
2023-01-22T08:05:48.518Z,98745.00
2023-01-22T08:09:49.786Z,98751.00
2023-01-22T08:13:50.972Z,98759.00
2023-01-22T08:17:52.190Z,98756.00
2023-01-22T08:21:53.309Z,98756.00
2023-01-22T08:25:59.998Z,98761.00
2023-01-22T08:30:01.869Z,98766.00
2023-01-22T08:34:02.977Z,98769.00
2023-01-22T08:38:03.947Z,98771.00
2023-01-22T08:42:05.111Z,98769.00
2023-01-22T08:46:06.268Z,98766.00
2023-01-22T08:50:08.496Z,98778.00
2023-01-22T08:54:09.630Z,98777.00
2023-01-22T08:58:10.655Z,98769.00
2023-01-22T09:02:13.707Z,98779.00
2023-01-22T09:06:14.813Z,98788.00
2023-01-22T09:10:16.405Z,98788.00
2023-01-22T09:14:17.887Z,98793.00
2023-01-22T09:18:19.011Z,98781.00
2023-01-22T09:22:20.126Z,98792.00
2023-01-22T09:26:21.108Z,98802.00
2023-01-22T09:30:24.518Z,98803.00
2023-01-22T09:34:25.685Z,98794.00
2023-01-22T09:38:26.656Z,98805.00
2023-01-22T09:42:31.485Z,98804.00
2023-01-22T09:46:54.270Z,98805.00
2023-01-22T09:50:55.480Z,98808.00
2023-01-22T09:54:56.791Z,98811.00
2023-01-22T09:59:00.456Z,98806.00
2023-01-22T10:03:05.258Z,98819.00
2023-01-22T10:07:10.108Z,98826.00
2023-01-22T10:11:12.529Z,98816.00
2023-01-22T10:15:16.103Z,98821.00
2023-01-22T10:19:30.073Z,98820.00
2023-01-22T10:23:33.385Z,98821.00
2023-01-22T10:27:38.794Z,98810.00
2023-01-22T10:31:49.667Z,98808.00
2023-01-22T10:35:53.466Z,98812.00
2023-01-22T10:39:59.346Z,98817.00
2023-01-22T10:44:16.307Z,98823.00
2023-01-22T10:48:17.600Z,98812.00
2023-01-22T10:52:24.717Z,98818.00
2023-01-22T10:56:32.029Z,98821.00
2023-01-22T11:00:50.424Z,98824.00
2023-01-22T11:04:39.163Z,98829.00
2023-01-22T11:08:53.112Z,98821.00
2023-01-22T11:13:07.020Z,98823.00
2023-01-22T11:17:23.673Z,98816.00
2023-01-22T11:21:28.694Z,98824.00
2023-01-22T11:25:33.556Z,98834.00
2023-01-22T11:29:38.325Z,98820.00
2023-01-22T11:33:50.636Z,98825.00
2023-01-22T11:38:15.854Z,98827.00
2023-01-22T11:42:23.658Z,98829.00
2023-01-22T11:46:46.704Z,98821.00
2023-01-22T11:50:57.706Z,98830.00
2023-01-22T11:55:02.535Z,98825.00
2023-01-22T11:59:10.068Z,98826.00
2023-01-22T12:03:33.382Z,98829.00
2023-01-22T12:07:53.653Z,98820.00
2023-01-22T12:12:01.739Z,98813.00
2023-01-22T12:16:10.781Z,98811.00
2023-01-22T12:20:30.846Z,98809.00
2023-01-22T12:24:35.891Z,98804.00
2023-01-22T12:28:52.675Z,98807.00
2023-01-22T12:32:57.427Z,98804.00
2023-01-22T12:37:01.310Z,98811.00
2023-01-22T12:41:18.239Z,98809.00
2023-01-22T12:45:26.239Z,98808.00
2023-01-22T12:49:27.771Z,98813.00
2023-01-22T12:53:34.350Z,98812.00
2023-01-22T12:57:38.995Z,98814.00
2023-01-22T13:01:40.144Z,98816.00
2023-01-22T13:05:44.546Z,98819.00
2023-01-22T13:09:45.742Z,98821.00
2023-01-22T13:13:50.549Z,98824.00
2023-01-22T13:18:22.671Z,98827.00
2023-01-22T13:22:26.314Z,98839.00
2023-01-22T13:26:30.847Z,98832.00
2023-01-22T13:30:31.858Z,98837.00
2023-01-22T13:34:32.919Z,98845.00
2023-01-22T13:38:34.186Z,98848.00
2023-01-22T13:42:35.225Z,98846.00
2023-01-22T13:46:37.763Z,98843.00
2023-01-22T13:50:39.034Z,98842.00
2023-01-22T13:54:43.511Z,98843.00
2023-01-22T13:58:49.086Z,98846.00
2023-01-22T14:02:47.873Z,98850.00
2023-01-22T14:06:49.901Z,98846.00
2023-01-22T14:10:57.905Z,98854.00
2023-01-22T14:14:59.006Z,98849.00
2023-01-22T14:19:01.667Z,98859.00
2023-01-22T14:23:04.435Z,98854.00
2023-01-22T14:27:05.498Z,98851.00
2023-01-22T14:31:06.893Z,98865.00
2023-01-22T14:35:17.510Z,98862.00
2023-01-22T14:39:18.498Z,98863.00
2023-01-22T14:43:19.832Z,98869.00
2023-01-22T14:47:20.811Z,98868.00
2023-01-22T14:51:22.268Z,98870.00
2023-01-22T14:55:23.603Z,98878.00
2023-01-22T14:59:25.059Z,98875.00
2023-01-22T15:03:28.453Z,98869.00
2023-01-22T15:07:29.460Z,98871.00
2023-01-22T15:11:31.244Z,98876.00
2023-01-22T15:15:32.348Z,98884.00
2023-01-22T15:19:40.871Z,98887.00
2023-01-22T15:23:36.532Z,98887.00
2023-01-22T15:27:38.152Z,98888.00
2023-01-22T15:31:39.947Z,98891.00
2023-01-22T15:35:41.155Z,98907.00
2023-01-22T15:39:42.366Z,98897.00
2023-01-22T15:43:43.725Z,98906.00
2023-01-22T15:47:44.748Z,98907.00
2023-01-22T15:51:45.818Z,98912.00
2023-01-22T15:55:50.010Z,98916.00
2023-01-22T15:59:52.197Z,98913.00
2023-01-22T16:03:53.993Z,98908.00
2023-01-22T16:07:55.967Z,98918.00
2023-01-22T16:11:56.964Z,98926.00
2023-01-22T16:15:59.991Z,98926.00
2023-01-22T16:20:01.024Z,98928.00
2023-01-22T16:24:03.509Z,98934.00
2023-01-22T16:28:05.851Z,98936.00
2023-01-22T16:32:07.550Z,98937.00
2023-01-22T16:36:11.518Z,98934.00
2023-01-22T16:40:13.503Z,98934.00
2023-01-22T16:44:17.810Z,98946.00
2023-01-22T16:48:19.098Z,98948.00
2023-01-22T16:52:22.803Z,98947.00
2023-01-22T16:56:23.203Z,98956.00
2023-01-22T17:00:24.512Z,98954.00
2023-01-22T17:04:25.798Z,98959.00
2023-01-22T17:08:27.640Z,98959.00
2023-01-22T17:12:28.958Z,98963.00
2023-01-22T17:16:30.203Z,98970.00
2023-01-22T17:20:33.020Z,98970.00
2023-01-22T17:24:34.289Z,98968.00
2023-01-22T17:28:36.964Z,98981.00
2023-01-22T17:32:38.036Z,98978.00
2023-01-22T17:36:40.213Z,98974.00
2023-01-22T17:40:42.421Z,98983.00
2023-01-22T17:44:44.420Z,98984.00
2023-01-22T17:48:47.183Z,98985.00
2023-01-22T17:52:48.749Z,98988.00
2023-01-22T17:56:51.662Z,98862.00
2023-01-22T18:00:53.043Z,99001.00
2023-01-22T18:04:55.174Z,99003.00
2023-01-22T18:08:56.483Z,99003.00
2023-01-22T18:12:57.710Z,99005.00
2023-01-22T18:17:02.141Z,99002.00
2023-01-22T18:21:05.220Z,99007.00
2023-01-22T18:25:10.714Z,99020.00
2023-01-22T18:29:11.890Z,99012.00
2023-01-22T18:33:14.184Z,99023.00
2023-01-22T18:37:15.542Z,99024.00
2023-01-22T18:41:20.371Z,99023.00
2023-01-22T18:45:24.305Z,99027.00
2023-01-22T18:49:40.064Z,99025.00
2023-01-22T18:53:42.348Z,99029.00
2023-01-22T18:57:49.545Z,99027.00
2023-01-22T19:01:52.432Z,99023.00
2023-01-22T19:05:54.049Z,99033.00
2023-01-22T19:09:55.670Z,99041.00
2023-01-22T19:13:58.242Z,99041.00
2023-01-22T19:18:00.902Z,99044.00
2023-01-22T19:22:02.755Z,99057.00
2023-01-22T19:26:16.200Z,99055.00
2023-01-22T19:30:18.043Z,99060.00
2023-01-22T19:34:24.950Z,99058.00
2023-01-22T19:38:27.827Z,99060.00
2023-01-22T19:42:29.124Z,99070.00
2023-01-22T19:46:30.688Z,99067.00
2023-01-22T19:50:33.730Z,99090.00
2023-01-22T19:54:37.943Z,99061.00
2023-01-22T19:58:38.918Z,99073.00
2023-01-22T20:02:40.461Z,99074.00
2023-01-22T20:06:43.390Z,99075.00
2023-01-22T20:10:44.787Z,99088.00
2023-01-22T20:14:47.865Z,99083.00
2023-01-22T20:18:50.070Z,99092.00
2023-01-22T20:22:52.363Z,99096.00
2023-01-22T20:26:54.673Z,99092.00
2023-01-22T20:30:58.297Z,99108.00
2023-01-22T20:34:59.334Z,99108.00
2023-01-22T20:39:02.317Z,99105.00
2023-01-22T20:43:03.359Z,99110.00
2023-01-22T20:47:04.493Z,99103.00
2023-01-22T20:51:09.292Z,99102.00
2023-01-22T20:55:12.749Z,99101.00
2023-01-22T20:59:16.530Z,99107.00
2023-01-22T21:03:17.687Z,99107.00
2023-01-22T21:07:19.441Z,99017.00
2023-01-22T21:11:21.372Z,99117.00
2023-01-22T21:15:22.391Z,99099.00
2023-01-22T21:19:25.416Z,99118.00
2023-01-22T21:23:26.577Z,99128.00
2023-01-22T21:27:27.824Z,99119.00
2023-01-22T21:31:29.287Z,99105.00
2023-01-22T21:35:30.454Z,99119.00
2023-01-22T21:39:31.398Z,99125.00
2023-01-22T21:43:50.943Z,99118.00
2023-01-22T21:47:51.926Z,99116.00
2023-01-22T21:51:56.323Z,99119.00
2023-01-22T21:55:57.180Z,99112.00
2023-01-22T21:59:58.477Z,99118.00
2023-01-22T22:04:00.623Z,99109.00
2023-01-22T22:08:02.456Z,99112.00
2023-01-22T22:12:04.227Z,99121.00
2023-01-22T22:16:07.581Z,99099.00
2023-01-22T22:20:09.934Z,99121.00
2023-01-22T22:24:11.286Z,99125.00
2023-01-22T22:28:12.415Z,99121.00
2023-01-22T22:32:13.640Z,99121.00
2023-01-22T22:36:16.466Z,99125.00
2023-01-22T22:40:18.715Z,99126.00
2023-01-22T22:44:19.812Z,99121.00
2023-01-22T22:48:22.157Z,99120.00
2023-01-22T22:52:23.368Z,99130.00
2023-01-22T22:56:25.475Z,99129.00
2023-01-22T23:00:26.624Z,99132.00
2023-01-22T23:04:28.007Z,99132.00
2023-01-22T23:08:29.066Z,99137.00
2023-01-22T23:12:30.161Z,99128.00
2023-01-22T23:16:34.492Z,99132.00
2023-01-22T23:20:35.939Z,99132.00
2023-01-22T23:24:38.472Z,99135.00
2023-01-22T23:28:39.676Z,99141.00
2023-01-22T23:32:42.189Z,99138.00
2023-01-22T23:36:44.876Z,99137.00
2023-01-22T23:40:45.850Z,99141.00
2023-01-22T23:44:47.000Z,99140.00
2023-01-22T23:48:48.785Z,99134.00
2023-01-22T23:52:49.852Z,99133.00
2023-01-22T23:56:50.854Z,99147.00
